createdAt,value
2019-01-17T00:01:57.888Z,6.84
2019-01-17T00:07:05.684Z,6.80
2019-01-17T00:12:13.191Z,6.78
2019-01-17T00:17:20.809Z,6.79
2019-01-17T00:22:31.696Z,6.71
2019-01-17T00:27:57.363Z,6.76
2019-01-17T00:33:11.081Z,6.60
2019-01-17T00:38:35.174Z,6.61
2019-01-17T00:43:58.774Z,6.56
2019-01-17T00:49:08.246Z,6.55
2019-01-17T00:54:16.059Z,6.49
2019-01-17T00:59:23.760Z,6.56
2019-01-17T01:04:32.460Z,6.56
2019-01-17T01:09:41.148Z,6.57
2019-01-17T01:14:52.606Z,6.51
2019-01-17T01:20:03.841Z,6.51
2019-01-17T01:25:12.282Z,6.46
2019-01-17T01:30:18.464Z,6.46
2019-01-17T01:35:26.133Z,6.37
2019-01-17T01:40:52.362Z,6.34
2019-01-17T01:46:00.442Z,6.22
2019-01-17T01:51:10.693Z,6.19
2019-01-17T01:56:16.667Z,6.21
2019-01-17T02:01:22.632Z,6.26
2019-01-17T02:06:28.835Z,6.21
2019-01-17T02:11:34.807Z,6.16
2019-01-17T02:16:40.986Z,6.16
2019-01-17T02:21:47.476Z,6.14
2019-01-17T02:26:53.963Z,6.12
2019-01-17T02:31:59.912Z,6.10
2019-01-17T02:37:06.047Z,6.13
2019-01-17T02:42:12.160Z,6.15
2019-01-17T02:47:18.153Z,6.07
2019-01-17T02:52:24.207Z,6.13
2019-01-17T02:57:30.078Z,6.13
2019-01-17T03:02:36.163Z,6.05
2019-01-17T03:07:42.029Z,6.04
2019-01-17T03:12:47.998Z,6.03
2019-01-17T03:17:54.032Z,6.08
2019-01-17T03:22:59.949Z,6.09
2019-01-17T03:28:06.157Z,6.06
2019-01-17T03:33:12.539Z,5.96
2019-01-17T03:38:18.692Z,5.97
2019-01-17T03:43:24.767Z,5.87
2019-01-17T03:48:30.559Z,5.88
2019-01-17T03:53:36.727Z,5.72
2019-01-17T03:58:42.886Z,5.69
2019-01-17T04:03:48.858Z,5.58
2019-01-17T04:08:54.770Z,5.49
2019-01-17T04:14:01.002Z,5.44
2019-01-17T04:19:07.510Z,5.40
2019-01-17T04:24:13.595Z,5.40
2019-01-17T04:29:20.072Z,5.42
2019-01-17T04:34:26.486Z,5.29
2019-01-17T04:39:32.716Z,5.31
2019-01-17T04:44:38.905Z,5.26
2019-01-17T04:49:44.759Z,5.31
2019-01-17T04:54:51.068Z,5.32
2019-01-17T04:59:57.184Z,5.29
2019-01-17T05:05:03.467Z,5.23
2019-01-17T05:10:16.008Z,5.31
2019-01-17T05:15:22.141Z,5.28
2019-01-17T05:20:28.109Z,5.25
2019-01-17T05:25:33.955Z,5.23
2019-01-17T05:30:39.821Z,5.25
2019-01-17T05:35:45.896Z,5.16
2019-01-17T05:40:51.776Z,5.19
2019-01-17T05:45:57.651Z,5.18
2019-01-17T05:51:03.515Z,5.23
2019-01-17T05:56:09.610Z,5.21
2019-01-17T06:01:15.476Z,5.25
2019-01-17T06:06:21.634Z,5.12
2019-01-17T06:11:27.516Z,5.08
2019-01-17T06:16:33.991Z,4.96
2019-01-17T06:21:39.914Z,5.00
2019-01-17T06:26:45.811Z,4.86
2019-01-17T06:31:51.718Z,4.80
2019-01-17T06:36:58.112Z,4.84
2019-01-17T06:42:05.381Z,4.69
2019-01-17T06:47:11.583Z,4.64
2019-01-17T06:52:17.761Z,4.62
2019-01-17T06:57:23.911Z,4.63
2019-01-17T07:02:30.109Z,4.63
2019-01-17T07:07:36.417Z,4.54
2019-01-17T07:12:42.687Z,4.47
2019-01-17T07:17:48.840Z,4.48
2019-01-17T07:22:55.559Z,4.51
2019-01-17T07:28:02.151Z,4.37
2019-01-17T07:33:08.122Z,4.33
2019-01-17T07:38:14.047Z,4.31
2019-01-17T07:43:19.947Z,4.31
2019-01-17T07:48:26.196Z,4.27
2019-01-17T07:53:33.539Z,4.24
2019-01-17T07:58:39.620Z,4.19
2019-01-17T08:03:45.907Z,4.25
2019-01-17T08:08:52.059Z,4.25
2019-01-17T08:13:58.007Z,4.25
2019-01-17T08:19:04.124Z,4.30
2019-01-17T08:24:10.305Z,4.25
2019-01-17T08:29:16.480Z,4.28
2019-01-17T08:34:28.301Z,4.36
2019-01-17T08:39:30.931Z,4.39
2019-01-17T08:44:38.081Z,4.38
2019-01-17T08:49:44.147Z,4.38
2019-01-17T08:54:50.003Z,4.23
2019-01-17T08:59:55.881Z,4.17
2019-01-17T09:05:01.746Z,4.23
2019-01-17T09:10:18.275Z,4.29
2019-01-17T09:15:29.988Z,4.38
2019-01-17T09:20:35.956Z,4.61
2019-01-17T09:25:42.473Z,4.61
2019-01-17T09:30:48.555Z,4.57
2019-01-17T09:35:55.017Z,4.54
2019-01-17T09:41:01.168Z,4.67
2019-01-17T09:46:07.684Z,4.59
2019-01-17T09:51:14.126Z,4.51
2019-01-17T09:56:20.322Z,4.54
2019-01-17T10:01:26.328Z,4.58
2019-01-17T10:06:32.472Z,4.71
2019-01-17T10:11:38.576Z,4.75
2019-01-17T10:16:47.389Z,4.90
2019-01-17T10:22:28.013Z,5.01
2019-01-17T10:27:37.331Z,5.01
2019-01-17T10:33:06.159Z,5.06
2019-01-17T10:38:33.897Z,5.16
2019-01-17T10:43:56.677Z,5.10
2019-01-17T10:49:31.963Z,5.29
2019-01-17T10:55:04.038Z,5.44
2019-01-17T11:00:20.251Z,5.27
2019-01-17T11:05:43.043Z,5.35
2019-01-17T11:11:22.910Z,5.40
2019-01-17T11:16:47.089Z,5.33
2019-01-17T11:22:36.010Z,5.40
2019-01-17T11:28:07.236Z,5.47
2019-01-17T11:33:53.274Z,5.42
2019-01-17T11:39:22.362Z,5.45
2019-01-17T11:44:36.022Z,5.46
2019-01-17T11:50:21.846Z,5.66
2019-01-17T11:55:47.347Z,5.83
2019-01-17T12:01:07.263Z,5.92
2019-01-17T12:06:13.422Z,5.78
2019-01-17T12:11:19.639Z,5.81
2019-01-17T12:16:25.913Z,5.98
2019-01-17T12:21:32.068Z,6.00
2019-01-17T12:26:38.207Z,5.92
2019-01-17T12:31:44.633Z,5.87
2019-01-17T12:36:50.697Z,5.96
2019-01-17T12:41:56.711Z,5.98
2019-01-17T12:47:02.850Z,6.07
2019-01-17T12:52:08.991Z,6.07
2019-01-17T12:57:15.081Z,6.04
2019-01-17T13:02:21.422Z,6.00
2019-01-17T13:07:27.936Z,5.93
2019-01-17T13:12:34.382Z,5.96
2019-01-17T13:17:40.328Z,5.93
2019-01-17T13:22:46.627Z,6.02
2019-01-17T13:27:52.799Z,5.96
2019-01-17T13:32:58.908Z,6.00
2019-01-17T13:38:06.136Z,6.02
2019-01-17T13:43:12.262Z,5.99
2019-01-17T13:48:18.462Z,5.95
2019-01-17T13:53:24.787Z,5.83
2019-01-17T13:58:31.058Z,5.77
2019-01-17T14:03:37.308Z,5.75
2019-01-17T14:08:43.927Z,5.72
2019-01-17T14:13:50.392Z,5.75
2019-01-17T14:18:56.612Z,5.71
2019-01-17T14:24:03.267Z,5.60
2019-01-17T14:29:09.781Z,5.52
2019-01-17T14:34:16.411Z,5.44
2019-01-17T14:39:23.080Z,5.39
2019-01-17T14:44:29.209Z,5.33
2019-01-17T14:49:35.537Z,5.27
2019-01-17T14:54:41.999Z,5.20
2019-01-17T14:59:48.144Z,5.13
2019-01-17T15:04:54.264Z,5.12
2019-01-17T15:10:00.236Z,5.10
2019-01-17T15:15:08.998Z,5.03
2019-01-17T15:20:19.268Z,4.98
2019-01-17T15:25:25.760Z,5.00
2019-01-17T15:30:32.254Z,5.06
2019-01-17T15:35:38.221Z,4.99
2019-01-17T15:40:44.393Z,5.10
2019-01-17T15:45:50.651Z,5.15
2019-01-17T15:50:56.644Z,5.08
2019-01-17T15:56:02.673Z,5.03
2019-01-17T16:01:08.572Z,4.94
2019-01-17T16:06:14.995Z,4.95
2019-01-17T16:11:21.361Z,4.94
2019-01-17T16:16:27.362Z,4.89
2019-01-17T16:21:34.773Z,4.91
2019-01-17T16:26:41.169Z,4.89
2019-01-17T16:31:47.155Z,4.82
2019-01-17T16:36:53.661Z,4.87
2019-01-17T16:41:59.830Z,4.89
2019-01-17T16:47:06.074Z,4.88
2019-01-17T16:52:12.306Z,4.84
2019-01-17T16:57:18.232Z,4.79
2019-01-17T17:02:24.083Z,4.75
2019-01-17T17:07:30.966Z,4.74
2019-01-17T17:12:38.044Z,4.71
2019-01-17T17:17:44.203Z,4.84
2019-01-17T17:22:50.019Z,4.89
2019-01-17T17:27:56.133Z,4.97
2019-01-17T17:33:02.214Z,4.90
2019-01-17T17:38:09.383Z,4.89
2019-01-17T17:43:15.213Z,4.77
2019-01-17T17:48:21.145Z,4.72
2019-01-17T17:53:27.058Z,4.60
2019-01-17T17:58:33.106Z,4.62
2019-01-17T18:03:39.474Z,4.52
2019-01-17T18:08:45.579Z,4.50
2019-01-17T18:13:52.011Z,4.47
2019-01-17T18:18:58.023Z,4.46
2019-01-17T18:24:04.102Z,4.62
2019-01-17T18:29:10.068Z,4.70
2019-01-17T18:34:16.468Z,4.74
2019-01-17T18:39:22.846Z,4.76
2019-01-17T18:44:28.928Z,4.71
2019-01-17T18:49:35.327Z,4.66
2019-01-17T18:54:41.270Z,4.59
2019-01-17T18:59:47.477Z,4.60
2019-01-17T19:04:53.511Z,4.58
2019-01-17T19:09:59.400Z,4.61
2019-01-17T19:15:13.682Z,4.61
2019-01-17T19:20:21.307Z,4.63
2019-01-17T19:25:27.772Z,4.54
2019-01-17T19:30:34.056Z,4.55
2019-01-17T19:35:40.344Z,4.54
2019-01-17T19:40:46.389Z,4.60
2019-01-17T19:45:53.392Z,4.57
2019-01-17T19:50:59.593Z,4.54
2019-01-17T19:56:06.377Z,4.51
2019-01-17T20:01:14.079Z,4.49
2019-01-17T20:06:20.117Z,4.44
2019-01-17T20:11:26.171Z,4.52
2019-01-17T20:16:32.082Z,4.40
2019-01-17T20:21:38.406Z,4.44
2019-01-17T20:26:44.684Z,4.47
2019-01-17T20:31:50.827Z,4.47
2019-01-17T20:36:56.910Z,4.43
2019-01-17T20:42:03.088Z,4.48
2019-01-17T20:47:09.495Z,4.47
2019-01-17T20:52:16.078Z,4.42
2019-01-17T20:57:22.725Z,4.51
2019-01-17T21:02:28.985Z,4.56
2019-01-17T21:07:34.967Z,4.44
2019-01-17T21:12:40.868Z,4.57
2019-01-17T21:17:47.068Z,4.56
2019-01-17T21:22:53.376Z,4.54
2019-01-17T21:27:59.879Z,4.62
2019-01-17T21:33:07.101Z,4.63
2019-01-17T21:38:13.203Z,4.68
2019-01-17T21:43:19.793Z,4.57
2019-01-17T21:48:25.871Z,4.50
2019-01-17T21:53:32.157Z,4.41
2019-01-17T21:58:38.208Z,4.43
2019-01-17T22:03:44.519Z,4.45
2019-01-17T22:08:50.597Z,4.45
2019-01-17T22:13:56.679Z,4.41
2019-01-17T22:19:03.244Z,4.41
2019-01-17T22:24:09.586Z,4.44
2019-01-17T22:29:15.705Z,4.40
2019-01-17T22:34:21.992Z,4.36
2019-01-17T22:39:28.376Z,4.35
2019-01-17T22:44:34.763Z,4.32
2019-01-17T22:49:40.814Z,4.31
2019-01-17T22:54:47.531Z,4.30
2019-01-17T22:59:53.591Z,4.33
2019-01-17T23:04:59.851Z,4.38
2019-01-17T23:10:09.118Z,4.36
2019-01-17T23:15:15.193Z,4.39
2019-01-17T23:20:21.049Z,4.38
2019-01-17T23:25:27.209Z,4.41
2019-01-17T23:30:33.219Z,4.46
2019-01-17T23:35:39.167Z,4.52
2019-01-17T23:40:45.160Z,4.54
2019-01-17T23:45:51.335Z,4.60
2019-01-17T23:50:57.408Z,4.60
2019-01-17T23:56:03.703Z,4.65
